Keeseville, NY (12944)

12:49 AM EDT on May 30, 2015 (GMT -0400)
Lake Champlain South Valcour | | Change Station
CLOSE
Current Station
Personal Weather Station
Location: Peru, NY
Elevation: 92 ft
Nearby Weather Stations

Elev 92 ft 44.60 °N, 73.44 °W | Updated 7 minutes ago

Clear
Clear
57.2 °F
Feels Like 57.2 °F
N
0.0
Wind Variable Wind from WNW

Today
High -- | Low -- °F
--% Chance of Precip.
Yesterday
High -- | Low -- °F
Precip. -- in
5:13 AM 8:29 PM
Waxing Gibbous, 88% visible
Pressure 30.10 in
Visibility 10.0 miles
Clouds Clear
Dew Point 54 °F
Humidity 90%
Rainfall 0.00 in
Snow Depth Not available.
UV 0 out of 12
Pollen 9.80 out of 12
Air Quality Not available.
Flu Activity Sporadic
METAR KPBG 300353Z AUTO 00000KT 10SM CLR 14/13 A3010 RMK AO2 SLP193 T01390128

More Conditions Fewer Conditions

Pressure 30.10 in
Visibility 10.0 miles
Clouds Clear
Dew Point 54 °F
Humidity 90%
Rainfall 0.00 in
Snow Depth Not available.
UV 0 out of 12
Pollen 9.80 out of 12
Air Quality Not available.
Flu Activity Sporadic
METAR KPBG 300353Z AUTO 00000KT 10SM CLR 14/13 A3010 RMK AO2 SLP193 T01390128

More Conditions Fewer Conditions

10-Day Weather Forecast

Almanac

Astronomy

May. 30, 2015 Rise Set
Actual Time
Civil Twilight
Nautical Twilight
Astronomical Twilight
Moon
Length of Visible Light
Length of Day
Tomorrow will be .
, % of the Moon is Illuminated

Today's Extremes

State Highs State Lows

Community

WunderPhotos

Upload Photos

1,825,455 photos uploaded!

WunderBlogs® & News

Nearby

Air Quality

  Air Quality AQ Index Pollutant
Not available.

Snow Depth

Station Depth Elevation

Earthquake Activity

City Distance Mag. Time & Date
Minimum magnitude displayed is 2.5.

Coastal Water Temperatures

Place Temperature

Stations

Nearby Weather Stations

Station Location Temp. Windchill Dew Point Humidity Wind Precip. Elev Updated Type